Time;durP1;ratioP1;P1;durP2;ratioP2;P2;SDS_P1;SDS_P2;PMS_P1;PMS_P2;Temp;Humidity;BMP_temperature;BMP_pressure;BME280_temperature;BME280_humidity;BME280_pressure;Samples;Min_cycle;Max_cycle;Signal;HPM_P1;HPM_P2
2023/08/15 00:00:15;;;;;;;8.40;4.20;;;;;;;21.07;93.03;100603.95;105291;1258;69247;-65
2023/08/15 00:03:04;;;;;;;11.20;4.10;;;;;;;21.11;92.49;100602.61;105241;1256;77293;-65
2023/08/15 00:05:31;;;;;;;7.90;4.10;;;;;;;21.14;92.08;100605.73;105320;1258;83456;-64
2023/08/15 00:08:01;;;;;;;6.30;3.80;;;;;;;21.16;91.57;100605.20;105268;1260;72579;-65
2023/08/15 00:10:28;;;;;;;5.60;4.00;;;;;;;21.20;91.26;100605.64;105210;1259;69285;-64
2023/08/15 00:12:55;;;;;;;7.80;4.00;;;;;;;21.23;90.90;100605.55;105221;1256;69117;-64
2023/08/15 00:15:22;;;;;;;8.40;3.80;;;;;;;21.27;90.39;100607.75;105249;1256;75691;-64
2023/08/15 00:17:49;;;;;;;10.30;3.90;;;;;;;21.31;90.17;100612.19;105270;1258;83271;-65
2023/08/15 00:20:16;;;;;;;5.40;3.70;;;;;;;21.34;89.64;100612.73;105276;1258;73801;-64
2023/08/15 00:22:43;;;;;;;6.20;4.10;;;;;;;21.35;89.17;100612.95;105222;1260;69195;-64
2023/08/15 00:25:10;;;;;;;6.90;4.20;;;;;;;21.39;88.79;100615.04;105272;1268;69225;-65
2023/08/15 00:27:36;;;;;;;6.00;3.80;;;;;;;21.43;88.33;100609.92;105232;1259;74648;-64
2023/08/15 00:30:05;;;;;;;5.40;3.70;;;;;;;21.46;87.88;100611.84;105173;1261;83188;-65
2023/08/15 00:32:35;;;;;;;6.10;3.80;;;;;;;21.49;87.51;100609.10;105297;1256;72707;-65
2023/08/15 00:35:03;;;;;;;8.50;3.60;;;;;;;21.52;87.14;100610.09;105223;1258;69580;-64
2023/08/15 00:37:34;;;;;;;4.70;3.80;;;;;;;21.51;87.03;100606.75;105161;1260;69027;-64
2023/08/15 00:40:02;;;;;;;7.00;3.80;;;;;;;21.48;87.18;100607.19;105317;1262;74699;-65
2023/08/15 00:42:29;;;;;;;6.00;4.10;;;;;;;21.43;87.21;100607.11;105315;1260;83468;-65
2023/08/15 00:44:57;;;;;;;4.60;3.70;;;;;;;21.35;87.64;100608.20;105263;1258;72542;-65
2023/08/15 00:47:24;;;;;;;4.50;3.80;;;;;;;21.26;87.67;100606.98;105248;1269;69232;-64
2023/08/15 00:49:53;;;;;;;5.40;3.80;;;;;;;21.16;87.94;100606.80;105281;1259;69138;-65
2023/08/15 00:52:20;;;;;;;4.30;3.90;;;;;;;21.07;88.21;100602.38;105251;1259;74542;-65
2023/08/15 00:54:49;;;;;;;6.20;3.60;;;;;;;21.00;88.32;100603.98;105056;1262;81359;-65
2023/08/15 00:57:16;;;;;;;5.60;3.60;;;;;;;20.98;88.35;100603.10;105227;1260;72674;-64
2023/08/15 00:59:43;;;;;;;5.50;3.90;;;;;;;20.95;88.52;100607.55;105355;1256;69069;-64
2023/08/15 01:02:11;;;;;;;6.60;4.20;;;;;;;20.89;88.50;100608.56;105153;1262;69151;-64
2023/08/15 01:04:39;;;;;;;5.70;4.10;;;;;;;20.86;88.72;100607.73;105385;1260;75836;-65
2023/08/15 01:07:09;;;;;;;5.90;4.10;;;;;;;20.82;89.20;100610.86;105311;1260;82826;-64
2023/08/15 01:09:36;;;;;;;5.50;3.90;;;;;;;20.75;89.50;100609.66;105306;1261;72693;-65
2023/08/15 01:12:29;;;;;;;4.70;4.00;;;;;;;20.67;89.65;100614.66;105184;1262;69183;-65
2023/08/15 01:15:16;;;;;;;5.70;3.80;;;;;;;20.56;89.72;100610.57;105159;1261;69185;-65
2023/08/15 01:18:14;;;;;;;4.40;4.00;;;;;;;20.47;90.20;100607.44;105353;1261;74646;-64
2023/08/15 01:20:41;;;;;;;6.50;3.90;;;;;;;20.39;90.56;100603.84;105261;1260;82607;-65
2023/08/15 01:23:12;;;;;;;4.80;4.10;;;;;;;20.35;91.07;100598.45;105248;1257;72633;-65
2023/08/15 01:25:40;;;;;;;7.30;3.80;;;;;;;20.31;91.22;100596.63;105173;1269;69160;-65
2023/08/15 01:28:15;;;;;;;4.60;3.60;;;;;;;20.27;91.43;100598.98;105174;1261;69141;-65
2023/08/15 01:31:11;;;;;;;5.90;3.70;;;;;;;20.24;91.68;100602.21;105197;1261;75914;-65
2023/08/15 01:34:10;;;;;;;4.50;3.80;;;;;;;20.20;91.26;100605.94;105215;1264;82373;-64
2023/08/15 01:36:44;;;;;;;12.00;4.10;;;;;;;20.21;91.80;100606.38;105247;1259;74198;-64
2023/08/15 01:39:12;;;;;;;4.30;3.70;;;;;;;20.20;91.77;100603.46;105314;1257;69187;-64
2023/08/15 01:41:41;;;;;;;13.00;4.00;;;;;;;20.18;91.28;100603.22;105322;1259;69159;-65
2023/08/15 01:44:10;;;;;;;5.90;3.50;;;;;;;20.22;90.81;100604.19;105182;1260;74699;-65
2023/08/15 01:46:38;;;;;;;5.60;3.30;;;;;;;20.29;90.41;100603.67;105285;1260;83565;-65
2023/08/15 01:49:05;;;;;;;5.90;3.60;;;;;;;20.39;89.99;100601.02;105156;1263;73850;-64
2023/08/15 01:51:32;;;;;;;7.00;3.50;;;;;;;20.48;89.80;100601.85;105278;1257;69177;-64
2023/08/15 01:53:59;;;;;;;6.50;3.60;;;;;;;20.56;89.45;100598.83;105254;1256;69184;-64
2023/08/15 01:56:26;;;;;;;7.90;3.50;;;;;;;20.61;88.94;100598.98;105301;1259;74539;-64
2023/08/15 01:58:53;;;;;;;6.70;4.00;;;;;;;20.68;88.61;100602.74;105154;1261;83115;-64
2023/08/15 02:01:22;;;;;;;6.60;3.70;;;;;;;20.69;88.28;100601.91;105324;1260;72646;-64
2023/08/15 02:03:49;;;;;;;5.90;3.60;;;;;;;20.72;87.83;100604.38;105298;1261;69129;-65
2023/08/15 02:06:16;;;;;;;6.00;3.60;;;;;;;20.74;87.68;100601.97;105313;1260;69304;-65
2023/08/15 02:08:43;;;;;;;6.30;3.50;;;;;;;20.74;87.24;100599.06;105184;1261;75560;-65
2023/08/15 02:11:10;;;;;;;4.60;3.50;;;;;;;20.77;86.97;100603.11;105280;1259;81925;-65
2023/08/15 02:13:37;;;;;;;4.90;3.30;;;;;;;20.78;86.69;100604.64;105242;1255;72659;-65
2023/08/15 02:16:04;;;;;;;6.80;3.30;;;;;;;20.78;86.24;100610.32;105270;1258;69127;-64
2023/08/15 02:18:32;;;;;;;7.20;3.30;;;;;;;20.78;85.82;100615.98;105281;1258;69118;-65
2023/08/15 02:20:59;;;;;;;4.00;3.20;;;;;;;20.78;85.57;100618.50;105323;1260;75504;-65
2023/08/15 02:23:26;;;;;;;4.60;3.40;;;;;;;20.78;85.43;100612.98;105276;1258;83561;-65
2023/08/15 02:25:53;;;;;;;6.70;3.60;;;;;;;20.71;85.76;100613.81;105313;1260;73756;-65
2023/08/15 02:28:20;;;;;;;6.90;3.70;;;;;;;20.60;85.51;100616.61;105157;1262;69859;-65
2023/08/15 02:30:52;;;;;;;13.20;3.80;;;;;;;20.51;85.54;100617.84;105259;1262;69186;-62
2023/08/15 02:33:19;;;;;;;5.00;3.80;;;;;;;20.39;85.66;100606.62;105342;1257;74743;-62
2023/08/15 02:35:47;;;;;;;8.60;3.10;;;;;;;20.27;85.57;100608.03;105344;1261;83209;-62
2023/08/15 02:38:13;;;;;;;4.90;3.20;;;;;;;20.26;85.59;100610.84;105250;1258;72610;-62
2023/08/15 02:40:42;;;;;;;7.30;3.00;;;;;;;20.26;85.53;100608.80;105089;1260;69187;-62
2023/08/15 02:43:09;;;;;;;5.70;3.70;;;;;;;20.26;85.30;100612.58;105347;1260;69187;-62
2023/08/15 02:45:36;;;;;;;5.40;3.60;;;;;;;20.23;85.46;100618.64;105310;1260;75718;-62
2023/08/15 02:48:03;;;;;;;6.20;3.40;;;;;;;20.17;85.42;100625.98;105310;1259;83286;-61
2023/08/15 02:50:30;;;;;;;5.50;3.60;;;;;;;20.11;85.05;100636.40;105284;1257;73565;-62
2023/08/15 02:52:57;;;;;;;4.90;3.90;;;;;;;20.08;85.00;100638.61;105273;1259;69132;-62
2023/08/15 02:55:24;;;;;;;7.00;4.00;;;;;;;20.04;85.57;100640.27;105340;1258;69212;-62
2023/08/15 02:57:51;;;;;;;7.90;4.30;;;;;;;19.95;85.40;100640.42;105256;1258;75672;-62
2023/08/15 03:00:17;;;;;;;7.30;4.20;;;;;;;19.87;86.04;100643.27;105265;1263;82407;-62
2023/08/15 03:02:44;;;;;;;6.90;3.90;;;;;;;19.78;86.41;100644.61;105239;1258;72594;-62
2023/08/15 03:05:12;;;;;;;5.50;3.70;;;;;;;19.66;86.50;100642.84;105356;1260;69247;-62
2023/08/15 03:07:39;;;;;;;4.40;3.70;;;;;;;19.51;86.57;100641.73;105309;1259;69151;-62
2023/08/15 03:10:07;;;;;;;5.60;3.60;;;;;;;19.38;86.86;100640.87;105281;1258;74043;-62
2023/08/15 03:12:34;;;;;;;6.20;4.10;;;;;;;19.25;87.10;100638.61;105319;1260;82310;-62
2023/08/15 03:15:01;;;;;;;6.50;3.90;;;;;;;19.13;87.28;100638.55;105310;1259;72650;-63
2023/08/15 03:17:28;;;;;;;6.10;3.90;;;;;;;19.05;87.51;100638.16;105285;1258;69269;-64
2023/08/15 03:19:57;;;;;;;6.40;3.70;;;;;;;19.06;88.05;100637.73;105307;1259;69188;-63
2023/08/15 03:22:24;;;;;;;5.30;4.00;;;;;;;19.07;88.31;100644.10;105322;1257;75759;-63
2023/08/15 03:24:52;;;;;;;8.70;4.00;;;;;;;19.05;87.99;100641.42;105197;1258;82402;-63
2023/08/15 03:27:19;;;;;;;6.80;3.20;;;;;;;19.05;87.91;100642.97;105156;1260;73450;-63
2023/08/15 03:29:46;;;;;;;8.40;4.30;;;;;;;19.07;88.09;100641.76;105363;1261;69167;-63
2023/08/15 03:32:13;;;;;;;5.10;3.90;;;;;;;19.07;88.21;100638.98;105357;1256;69303;-63
2023/08/15 03:34:40;;;;;;;6.00;3.70;;;;;;;19.09;88.22;100636.69;105329;1258;75843;-63
2023/08/15 03:37:07;;;;;;;9.30;3.90;;;;;;;19.08;88.49;100636.41;105279;1261;83475;-63
2023/08/15 03:39:34;;;;;;;8.40;4.40;;;;;;;18.98;88.35;100647.92;105352;1260;71596;-63
2023/08/15 03:42:01;;;;;;;5.60;3.50;;;;;;;18.87;88.17;100650.23;105301;1258;69186;-63
2023/08/15 03:44:28;;;;;;;4.40;3.80;;;;;;;18.82;88.20;100649.19;105245;1257;69213;-63
2023/08/15 03:46:55;;;;;;;5.40;4.20;;;;;;;18.80;88.82;100646.32;105259;1260;75736;-63
2023/08/15 03:49:22;;;;;;;4.40;3.80;;;;;;;18.75;89.06;100646.29;105254;1257;82307;-63
2023/08/15 03:51:49;;;;;;;5.60;3.90;;;;;;;18.65;88.94;100650.23;105191;1257;73673;-63
2023/08/15 03:54:17;;;;;;;4.40;3.50;;;;;;;18.61;89.52;100651.95;105308;1257;69182;-63
2023/08/15 03:56:44;;;;;;;5.10;4.10;;;;;;;18.61;89.85;100657.98;105326;1255;69515;-63
2023/08/15 03:59:12;;;;;;;5.00;4.10;;;;;;;18.60;90.32;100660.69;105385;1257;75774;-63
2023/08/15 04:01:39;;;;;;;7.10;4.20;;;;;;;18.60;90.58;100658.92;105144;1260;83516;-63
2023/08/15 04:04:06;;;;;;;7.60;4.00;;;;;;;18.55;90.64;100656.76;105106;1257;73617;-63
2023/08/15 04:06:33;;;;;;;9.10;4.30;;;;;;;18.50;90.95;100663.29;105091;1260;69200;-63
2023/08/15 04:09:01;;;;;;;7.30;4.30;;;;;;;18.51;91.49;100666.42;105307;1264;69163;-63
2023/08/15 04:11:28;;;;;;;6.70;4.00;;;;;;;18.51;91.69;100664.12;105379;1259;75777;-63
2023/08/15 04:13:55;;;;;;;5.00;4.20;;;;;;;18.49;91.84;100664.08;105315;1260;83290;-63
2023/08/15 04:16:22;;;;;;;6.90;4.40;;;;;;;18.44;91.90;100677.47;105294;1257;73737;-63
2023/08/15 04:18:49;;;;;;;8.40;4.60;;;;;;;18.44;92.35;100668.09;105445;1257;69116;-62
2023/08/15 04:21:17;;;;;;;5.60;4.20;;;;;;;18.52;92.78;100671.33;105362;1257;69176;-62
2023/08/15 04:23:44;;;;;;;5.50;4.00;;;;;;;18.59;93.12;100679.20;105352;1261;74850;-62
2023/08/15 04:26:11;;;;;;;6.50;4.50;;;;;;;18.61;93.20;100676.02;105290;1260;82346;-62
2023/08/15 04:28:38;;;;;;;4.80;4.30;;;;;;;18.64;93.60;100673.13;105055;1257;72648;-65
2023/08/15 04:31:05;;;;;;;5.90;4.30;;;;;;;18.68;93.81;100678.21;105243;1254;69086;-63
2023/08/15 04:33:32;;;;;;;7.50;4.30;;;;;;;18.69;93.70;100678.99;105062;1257;69195;-63
2023/08/15 04:35:59;;;;;;;4.90;4.20;;;;;;;18.70;93.86;100680.70;105137;1260;75728;-63
2023/08/15 04:38:27;;;;;;;6.30;4.20;;;;;;;18.72;94.04;100678.09;105184;1257;82967;-63
2023/08/15 04:40:55;;;;;;;9.30;4.40;;;;;;;18.73;94.31;100679.27;105298;1260;72731;-63
2023/08/15 04:43:26;;;;;;;7.80;4.30;;;;;;;18.77;94.74;100678.73;105097;1261;69203;-63
2023/08/15 04:45:53;;;;;;;4.70;4.30;;;;;;;18.78;94.92;100680.59;105099;1257;69142;-63
2023/08/15 04:48:20;;;;;;;6.80;4.20;;;;;;;18.80;94.74;100677.45;105131;1258;75797;-63
2023/08/15 04:50:47;;;;;;;5.80;4.20;;;;;;;18.86;95.07;100678.48;105383;1259;82014;-64
2023/08/15 04:53:14;;;;;;;5.30;4.20;;;;;;;18.93;95.10;100684.50;105296;1259;72608;-65
2023/08/15 04:55:41;;;;;;;5.70;4.00;;;;;;;19.03;95.38;100687.06;105126;1261;69208;-66
2023/08/15 04:58:09;;;;;;;4.80;3.70;;;;;;;19.09;95.55;100678.82;105236;1258;69157;-66
2023/08/15 05:00:36;;;;;;;6.70;4.80;;;;;;;19.15;95.91;100675.57;105224;1258;75857;-64
2023/08/15 05:03:04;;;;;;;6.70;4.40;;;;;;;19.21;96.05;100682.08;105462;1257;82471;-64
2023/08/15 05:05:32;;;;;;;6.20;4.00;;;;;;;19.27;96.19;100683.24;105323;1260;73601;-65
2023/08/15 05:07:59;;;;;;;4.90;4.20;;;;;;;19.34;96.17;100681.73;105300;1257;69138;-65
2023/08/15 05:10:26;;;;;;;5.10;4.40;;;;;;;19.42;96.44;100682.44;105376;1257;69179;-64
2023/08/15 05:12:56;;;;;;;5.60;4.30;;;;;;;19.50;96.83;100685.91;105337;1257;74535;-64
2023/08/15 05:15:23;;;;;;;7.30;4.80;;;;;;;19.59;96.77;100680.20;105381;1259;82187;-65
2023/08/15 05:17:50;;;;;;;5.00;4.50;;;;;;;19.65;96.53;100683.83;105111;1257;73597;-64
2023/08/15 05:20:17;;;;;;;6.00;4.00;;;;;;;19.73;96.14;100685.81;105249;1258;69311;-64
2023/08/15 05:22:44;;;;;;;4.20;3.80;;;;;;;19.80;95.48;100690.81;105299;1259;69180;-64
2023/08/15 05:25:11;;;;;;;4.90;4.40;;;;;;;19.89;95.50;100693.16;105373;1258;75716;-65
2023/08/15 05:27:44;;;;;;;6.40;3.90;;;;;;;19.99;95.16;100695.79;105312;1259;83588;-65
2023/08/15 05:30:11;;;;;;;4.60;4.20;;;;;;;20.09;95.08;100694.59;105297;1257;73555;-64
2023/08/15 05:32:38;;;;;;;6.70;4.60;;;;;;;20.19;95.18;100700.41;105326;1257;69209;-64
2023/08/15 05:35:06;;;;;;;5.40;4.60;;;;;;;20.27;95.08;100702.81;105340;1256;69177;-64
2023/08/15 05:37:33;;;;;;;6.60;4.90;;;;;;;20.34;95.15;100705.52;105348;1258;74616;-64
2023/08/15 05:40:00;;;;;;;5.50;4.20;;;;;;;20.40;95.19;100702.95;105301;1258;83537;-64
2023/08/15 05:42:31;;;;;;;7.40;4.10;;;;;;;20.48;94.91;100706.46;105310;1257;72527;-64
2023/08/15 05:44:58;;;;;;;6.00;4.00;;;;;;;20.54;94.40;100714.20;105335;1255;69168;-64
2023/08/15 05:47:25;;;;;;;5.60;4.20;;;;;;;20.60;93.91;100721.06;105258;1257;69135;-65
2023/08/15 05:49:52;;;;;;;5.60;4.30;;;;;;;20.67;93.86;100720.15;105226;1257;75552;-64
2023/08/15 05:52:19;;;;;;;8.30;4.10;;;;;;;20.74;93.83;100720.69;105278;1255;83291;-64
2023/08/15 05:54:46;;;;;;;6.00;3.70;;;;;;;20.81;93.72;100723.02;105333;1260;73815;-64
2023/08/15 05:57:12;;;;;;;4.00;3.60;;;;;;;20.87;93.12;100727.91;105274;1256;69183;-65
2023/08/15 05:59:39;;;;;;;5.90;3.90;;;;;;;20.95;92.65;100728.40;105296;1258;69110;-64
2023/08/15 06:02:06;;;;;;;9.30;4.30;;;;;;;21.01;92.58;100725.42;105396;1257;75731;-64
2023/08/15 06:04:33;;;;;;;4.00;3.40;;;;;;;21.08;92.69;100723.98;105237;1257;83857;-65
2023/08/15 06:07:02;;;;;;;4.00;3.60;;;;;;;21.16;92.40;100722.16;105281;1258;73748;-64
2023/08/15 06:09:29;;;;;;;8.00;4.10;;;;;;;21.24;92.12;100725.63;105259;1256;69251;-65
2023/08/15 06:11:56;;;;;;;5.40;3.70;;;;;;;21.32;92.14;100726.42;105580;1257;69304;-63
2023/08/15 06:14:23;;;;;;;5.00;3.70;;;;;;;21.39;92.11;100721.64;105347;1256;75593;-64
2023/08/15 06:16:50;;;;;;;5.50;3.70;;;;;;;21.46;91.59;100721.13;105371;1259;83809;-60
2023/08/15 06:19:18;;;;;;;4.20;3.80;;;;;;;21.52;91.34;100714.60;105394;1258;73616;-62
2023/08/15 06:21:45;;;;;;;7.10;4.30;;;;;;;21.59;91.14;100718.34;105305;1258;69165;-61
2023/08/15 06:24:13;;;;;;;4.90;3.80;;;;;;;21.66;90.93;100715.67;105303;1258;69137;-62
2023/08/15 06:26:40;;;;;;;4.40;3.40;;;;;;;21.75;90.21;100720.13;105353;1257;75924;-61
2023/08/15 06:29:08;;;;;;;4.70;3.70;;;;;;;21.83;89.67;100723.23;105364;1256;82181;-62
2023/08/15 06:31:35;;;;;;;6.10;3.80;;;;;;;21.92;89.43;100723.59;105376;1259;73924;-64
2023/08/15 06:34:03;;;;;;;4.80;3.60;;;;;;;22.01;89.36;100720.90;105328;1257;69182;-62
2023/08/15 06:36:31;;;;;;;4.80;3.60;;;;;;;22.12;89.17;100721.10;105299;1256;69239;-61
2023/08/15 06:38:58;;;;;;;3.80;3.20;;;;;;;22.22;88.70;100719.26;105159;1260;75607;-60
2023/08/15 06:41:25;;;;;;;4.20;3.60;;;;;;;22.30;88.37;100720.70;105275;1257;82409;-60
2023/08/15 06:43:52;;;;;;;5.40;3.90;;;;;;;22.40;88.14;100721.71;105134;1257;72645;-60
2023/08/15 06:46:19;;;;;;;6.00;3.70;;;;;;;22.50;87.95;100721.59;105210;1257;69010;-60
2023/08/15 06:48:46;;;;;;;5.70;3.50;;;;;;;22.61;87.66;100724.64;105320;1255;69196;-60
2023/08/15 06:51:13;;;;;;;4.00;3.50;;;;;;;22.70;87.59;100724.95;105241;1259;74597;-60
2023/08/15 06:53:44;;;;;;;8.30;3.70;;;;;;;22.81;87.93;100725.08;105249;1259;83524;-60
2023/08/15 06:56:11;;;;;;;6.00;4.00;;;;;;;22.91;87.77;100727.23;105239;1260;72597;-60
2023/08/15 06:58:38;;;;;;;5.10;3.60;;;;;;;23.02;87.58;100723.76;105397;1257;68937;-59
2023/08/15 07:01:06;;;;;;;4.50;3.90;;;;;;;23.11;87.27;100723.45;105185;1260;69266;-58
2023/08/15 07:03:33;;;;;;;4.40;3.60;;;;;;;23.22;87.04;100722.15;105369;1256;75839;-61
2023/08/15 07:06:00;;;;;;;4.00;3.70;;;;;;;23.33;86.84;100723.69;105337;1260;83354;-60
2023/08/15 07:08:27;;;;;;;6.50;3.80;;;;;;;23.44;86.74;100720.48;105202;1256;73367;-60
2023/08/15 07:10:55;;;;;;;4.70;3.80;;;;;;;23.54;86.37;100721.20;105277;1257;69185;-62
2023/08/15 07:13:22;;;;;;;4.00;3.40;;;;;;;23.65;86.05;100718.51;105245;1255;69151;-62
2023/08/15 07:15:57;;;;;;;10.60;3.60;;;;;;;23.75;85.24;100719.77;105498;1258;75426;-62
2023/08/15 07:18:24;;;;;;;6.90;3.50;;;;;;;23.83;84.53;100712.85;105144;1260;83326;-63
2023/08/15 07:20:51;;;;;;;5.70;3.60;;;;;;;23.94;84.22;100715.11;105134;1256;73625;-63
2023/08/15 07:23:20;;;;;;;4.10;3.70;;;;;;;24.04;83.78;100710.10;105181;1257;69168;-63
2023/08/15 07:25:47;;;;;;;5.90;4.00;;;;;;;24.14;83.45;100715.12;105227;1256;69083;-64
2023/08/15 07:28:15;;;;;;;6.40;3.90;;;;;;;24.21;83.30;100713.37;105285;1258;74828;-64
2023/08/15 07:30:45;;;;;;;7.70;4.10;;;;;;;24.30;83.23;100715.62;105212;1257;82542;-62
2023/08/15 07:33:13;;;;;;;5.20;3.50;;;;;;;24.37;82.63;100710.55;105179;1260;73631;-63
2023/08/15 07:35:41;;;;;;;8.00;3.70;;;;;;;24.46;82.26;100711.70;105105;1257;69125;-63
2023/08/15 07:38:08;;;;;;;3.90;3.50;;;;;;;24.57;81.97;100712.19;105201;1257;69086;-63
2023/08/15 07:40:35;;;;;;;5.90;3.60;;;;;;;24.68;81.52;100708.63;105167;1256;74628;-63
2023/08/15 07:43:29;;;;;;;6.00;3.90;;;;;;;24.82;80.63;100709.00;102105;1291;603422;-63
2023/08/15 07:45:56;;;;;;;3.70;3.40;;;;;;;24.94;79.94;100710.36;104680;1270;69195;-63
2023/08/15 07:48:23;;;;;;;3.90;3.20;;;;;;;25.09;79.39;100709.52;104824;1267;69222;-63
2023/08/15 07:50:50;;;;;;;5.20;3.60;;;;;;;25.21;78.10;100711.09;104680;1267;72499;-64
2023/08/15 07:53:17;;;;;;;5.20;3.30;;;;;;;25.28;77.24;100711.30;104674;1267;83961;-62
2023/08/15 07:55:44;;;;;;;5.80;3.80;;;;;;;25.38;76.40;100710.90;104553;1267;218693;-63
2023/08/15 07:58:11;;;;;;;4.00;3.50;;;;;;;25.48;75.72;100712.52;104815;1263;69320;-62
2023/08/15 08:00:38;;;;;;;6.20;3.70;;;;;;;25.57;75.21;100710.85;104823;1266;69135;-62
2023/08/15 08:03:05;;;;;;;4.80;3.70;;;;;;;25.68;74.97;100709.17;104745;1266;72817;-62
2023/08/15 08:05:35;;;;;;;6.10;3.40;;;;;;;25.78;74.30;100709.81;104881;1266;83591;-60
2023/08/15 08:08:03;;;;;;;8.40;3.70;;;;;;;25.87;73.46;100706.77;104861;1264;72499;-61
2023/08/15 08:10:30;;;;;;;6.20;3.30;;;;;;;25.94;72.45;100704.31;104794;1264;69087;-61
2023/08/15 08:12:59;;;;;;;4.50;3.60;;;;;;;26.00;71.75;100699.68;104829;1263;69205;-61
2023/08/15 08:15:29;;;;;;;3.60;3.30;;;;;;;26.08;71.07;100697.62;104836;1266;73222;-61
2023/08/15 08:17:56;;;;;;;6.30;3.30;;;;;;;26.16;70.46;100690.90;104857;1264;82296;-61
2023/08/15 08:20:23;;;;;;;5.30;3.50;;;;;;;26.26;69.81;100687.05;104802;1266;72674;-63
2023/08/15 08:22:50;;;;;;;3.90;3.50;;;;;;;26.36;69.34;100689.44;104811;1268;69091;-62
2023/08/15 08:25:19;;;;;;;4.60;3.50;;;;;;;26.48;68.66;100684.55;104811;1263;69145;-61
2023/08/15 08:27:47;;;;;;;5.60;3.30;;;;;;;26.61;68.33;100683.61;104850;1266;72129;-62
2023/08/15 08:30:22;;;;;;;3.60;3.30;;;;;;;26.75;67.31;100686.31;104882;1267;82418;-61
2023/08/15 08:32:50;;;;;;;8.20;3.80;;;;;;;26.86;66.84;100684.79;104757;1268;72669;-61
2023/08/15 08:35:18;;;;;;;4.40;3.60;;;;;;;26.99;66.02;100693.27;104810;1269;69717;-62
2023/08/15 08:37:46;;;;;;;3.50;3.20;;;;;;;27.07;65.39;100692.95;104785;1269;69128;-64
2023/08/15 08:40:13;;;;;;;8.10;3.30;;;;;;;27.16;64.87;100689.34;104902;1263;73206;-64
2023/08/15 08:42:41;;;;;;;4.90;3.50;;;;;;;27.25;64.27;100690.22;104998;1268;83306;-64
2023/08/15 08:45:12;;;;;;;4.40;3.40;;;;;;;27.34;63.88;100691.95;105036;1264;74191;-64
2023/08/15 08:47:40;;;;;;;4.40;3.10;;;;;;;27.43;63.63;100693.77;104784;1264;69169;-63
2023/08/15 08:50:11;;;;;;;6.40;3.30;;;;;;;27.51;63.12;100684.65;104948;1263;69204;-63
2023/08/15 08:52:40;;;;;;;5.00;2.90;;;;;;;27.63;62.79;100684.67;104937;1266;73347;-64
2023/08/15 08:55:08;;;;;;;;;;;;;;;27.74;62.39;100685.85;104868;1269;82920;-63
2023/08/15 08:57:35;;;;;;;4.30;3.20;;;;;;;27.86;61.91;100682.96;104858;1269;71943;-63
2023/08/15 09:00:07;;;;;;;4.00;3.60;;;;;;;27.97;61.47;100681.70;104870;1270;69546;-61
2023/08/15 09:02:35;;;;;;;3.80;3.40;;;;;;;28.08;61.03;100680.68;104980;1263;69216;-63
2023/08/15 09:05:04;;;;;;;4.80;3.20;;;;;;;28.20;60.80;100676.47;104882;1270;73355;-63
2023/08/15 09:07:33;;;;;;;4.10;2.90;;;;;;;28.33;60.71;100675.80;104945;1266;83581;-65
2023/08/15 09:10:00;;;;;;;5.30;3.20;;;;;;;28.51;60.52;100675.04;104994;1263;73558;-65
2023/08/15 09:12:37;;;;;;;7.10;3.30;;;;;;;28.64;59.99;100677.81;105058;1266;69112;-66
2023/08/15 09:15:09;;;;;;;9.60;3.50;;;;;;;28.73;59.73;100672.94;105004;1266;69147;-64
2023/08/15 09:17:38;;;;;;;6.90;3.10;;;;;;;28.89;59.32;100669.92;105048;1264;73404;-65
2023/08/15 09:20:11;;;;;;;5.40;3.50;;;;;;;29.00;59.18;100666.55;105078;1266;83228;-65
2023/08/15 09:22:46;;;;;;;4.10;3.40;;;;;;;29.18;59.04;100666.40;104936;1264;72673;-65
2023/08/15 09:25:17;;;;;;;4.60;3.20;;;;;;;29.31;58.47;100668.55;104943;1264;69213;-66
2023/08/15 09:27:45;;;;;;;4.00;3.20;;;;;;;29.51;58.26;100665.22;104913;1270;70513;-64
2023/08/15 09:30:14;;;;;;;3.70;3.30;;;;;;;29.68;57.57;100669.08;104819;1269;73397;-69
2023/08/15 09:32:42;;;;;;;6.20;3.30;;;;;;;29.74;57.31;100670.50;104770;1268;83336;-69
2023/08/15 09:35:14;;;;;;;4.70;3.30;;;;;;;29.88;57.21;100665.80;104778;1269;73668;-66
2023/08/15 09:37:46;;;;;;;4.10;3.00;;;;;;;30.08;57.16;100659.73;104746;1263;69137;-67
2023/08/15 09:40:17;;;;;;;4.40;3.40;;;;;;;30.27;56.67;100661.04;104821;1264;69211;-67
2023/08/15 09:42:45;;;;;;;6.10;3.50;;;;;;;30.43;56.53;100656.41;104849;1267;72196;-66
2023/08/15 09:45:13;;;;;;;5.10;3.20;;;;;;;30.60;55.70;100656.56;104696;1263;82376;-66
2023/08/15 09:47:41;;;;;;;4.60;2.90;;;;;;;30.74;55.01;100657.13;104758;1264;74013;-65
2023/08/15 09:50:09;;;;;;;8.40;3.00;;;;;;;30.89;55.04;100658.36;105091;1263;69073;-62
2023/08/15 09:52:41;;;;;;;5.00;3.00;;;;;;;31.04;54.14;100658.61;104873;1264;69186;-62
2023/08/15 09:55:10;;;;;;;4.00;2.50;;;;;;;31.19;53.55;100659.30;104931;1270;73216;-62
2023/08/15 09:57:41;;;;;;;3.00;2.60;;;;;;;31.35;52.47;100661.72;105183;1268;83364;-63
2023/08/15 10:00:12;;;;;;;5.90;2.50;;;;;;;31.52;52.08;100656.45;105327;1263;73746;-63
2023/08/15 10:02:56;;;;;;;5.90;2.60;;;;;;;31.71;51.41;100655.84;104827;1266;69102;-62
2023/08/15 10:05:25;;;;;;;5.90;2.90;;;;;;;31.81;49.96;100663.52;104963;1267;69117;-62
2023/08/15 10:07:52;;;;;;;6.30;2.50;;;;;;;31.89;49.89;100655.83;105048;1264;73200;-62
2023/08/15 10:10:19;;;;;;;3.90;2.60;;;;;;;32.12;49.75;100652.31;104814;1269;82544;-62
2023/08/15 10:12:48;;;;;;;3.00;2.60;;;;;;;32.32;48.87;100654.87;105012;1267;73415;-62
2023/08/15 10:15:15;;;;;;;3.60;2.50;;;;;;;32.57;48.52;100657.14;104892;1277;69175;-62
2023/08/15 10:17:42;;;;;;;3.30;2.40;;;;;;;32.78;47.60;100652.27;104893;1270;69115;-62
2023/08/15 10:20:12;;;;;;;2.90;2.60;;;;;;;32.95;46.67;100648.52;104983;1266;72117;-63
2023/08/15 10:22:39;;;;;;;6.50;2.40;;;;;;;33.14;46.11;100648.23;104811;1270;82035;-62
2023/08/15 10:25:37;;;;;;;5.00;2.90;;;;;;;33.35;45.80;100644.93;104799;1263;72648;-62
2023/08/15 10:28:10;;;;;;;6.80;2.40;;;;;;;33.58;44.58;100648.46;104833;1270;69148;-62
2023/08/15 10:30:41;;;;;;;3.60;2.40;;;;;;;33.75;44.15;100644.07;104981;1268;69145;-62
2023/08/15 10:33:17;;;;;;;4.40;2.30;;;;;;;33.96;43.65;100641.25;105165;1269;73379;-63
2023/08/15 10:36:09;;;;;;;3.00;2.10;;;;;;;34.16;43.06;100642.85;104865;1264;83309;-62
2023/08/15 10:38:43;;;;;;;2.60;2.10;;;;;;;34.35;42.16;100636.15;104928;1264;73901;-62
2023/08/15 10:41:20;;;;;;;5.50;2.80;;;;;;;34.51;41.52;100641.98;104769;1269;69189;-60
2023/08/15 10:43:51;;;;;;;4.30;2.20;;;;;;;34.64;40.97;100645.33;104895;1270;69103;-63
2023/08/15 10:46:24;;;;;;;3.50;2.60;;;;;;;34.85;40.88;100644.61;104814;1269;72134;-63
2023/08/15 10:48:54;;;;;;;6.30;2.50;;;;;;;35.10;40.52;100650.23;104839;1269;83332;-62
2023/08/15 10:51:35;;;;;;;3.30;2.10;;;;;;;35.34;40.14;100648.41;104735;1268;73695;-62
2023/08/15 10:54:04;;;;;;;5.00;2.20;;;;;;;35.53;39.44;100651.83;104869;1267;69077;-63
2023/08/15 10:56:36;;;;;;;4.20;2.40;;;;;;;35.68;38.83;100648.59;104892;1264;69157;-62
2023/08/15 10:59:11;;;;;;;2.30;2.10;;;;;;;35.87;38.48;100642.13;104804;1269;73065;-62
2023/08/15 11:01:42;;;;;;;2.70;2.00;;;;;;;36.09;38.10;100643.49;105072;1269;83377;-62
2023/08/15 11:04:15;;;;;;;5.80;2.40;;;;;;;36.26;37.51;100640.89;105089;1266;73956;-62
2023/08/15 11:06:46;;;;;;;3.70;2.30;;;;;;;36.45;37.83;100637.85;104907;1270;69172;-62
2023/08/15 11:09:14;;;;;;;5.40;2.30;;;;;;;36.68;37.68;100637.99;104892;1270;69224;-62
2023/08/15 11:11:41;;;;;;;4.40;1.80;;;;;;;36.89;37.08;100636.41;105017;1267;73134;-62
2023/08/15 11:14:18;;;;;;;4.10;2.20;;;;;;;37.14;37.33;100636.49;105013;1267;83449;-62
2023/08/15 11:16:46;;;;;;;3.60;2.10;;;;;;;37.34;36.36;100639.10;104885;1270;73458;-61
2023/08/15 11:19:23;;;;;;;3.80;2.00;;;;;;;37.43;35.82;100628.66;104940;1266;69103;-62
2023/08/15 11:21:50;;;;;;;3.20;2.00;;;;;;;37.62;35.73;100624.64;104875;1266;69461;-59
2023/08/15 11:24:17;;;;;;;4.10;2.00;;;;;;;37.73;35.58;100631.85;104957;1273;73316;-63